createdAt,value
2023-01-13T00:01:26.023Z,8.28
2023-01-13T00:03:52.699Z,8.37
2023-01-13T00:06:20.418Z,8.47
2023-01-13T00:08:50.572Z,8.40
2023-01-13T00:11:17.354Z,8.40
2023-01-13T00:13:43.875Z,8.31
2023-01-13T00:16:12.209Z,8.36
2023-01-13T00:18:38.758Z,8.41
2023-01-13T00:21:11.758Z,8.38
2023-01-13T00:23:39.566Z,8.45
2023-01-13T00:26:07.342Z,8.29
2023-01-13T00:28:33.796Z,8.37
2023-01-13T00:31:10.223Z,8.35
2023-01-13T00:33:36.728Z,8.46
2023-01-13T00:36:04.168Z,8.40
2023-01-13T00:38:31.511Z,8.38
2023-01-13T00:40:58.758Z,8.42
2023-01-13T00:43:25.846Z,8.43
2023-01-13T00:45:52.723Z,8.40
2023-01-13T00:48:19.472Z,8.36
2023-01-13T00:50:45.986Z,8.38
2023-01-13T00:53:13.990Z,8.44
2023-01-13T00:55:40.547Z,8.41
2023-01-13T00:58:06.943Z,8.38
2023-01-13T01:00:33.497Z,8.29
2023-01-13T01:03:00.044Z,8.29
2023-01-13T01:05:26.476Z,8.27
2023-01-13T01:07:52.871Z,8.27
2023-01-13T01:10:19.355Z,8.23
2023-01-13T01:12:45.737Z,8.26
2023-01-13T01:15:12.156Z,8.23
2023-01-13T01:17:38.541Z,8.19
2023-01-13T01:20:05.175Z,8.14
2023-01-13T01:22:31.580Z,8.13
2023-01-13T01:24:58.340Z,8.07
2023-01-13T01:27:24.750Z,8.16
2023-01-13T01:29:51.177Z,8.04
2023-01-13T01:32:17.546Z,8.05
2023-01-13T01:34:44.004Z,7.99
2023-01-13T01:37:10.409Z,7.89
2023-01-13T01:39:36.817Z,7.94
2023-01-13T01:42:21.821Z,7.94
2023-01-13T01:44:53.985Z,7.90
2023-01-13T01:47:21.019Z,7.89
2023-01-13T01:49:47.777Z,7.89
2023-01-13T01:52:19.521Z,7.77
2023-01-13T01:54:57.671Z,7.79
2023-01-13T01:57:27.698Z,7.79
2023-01-13T01:59:54.471Z,7.77
2023-01-13T02:02:21.552Z,7.79
2023-01-13T02:04:51.175Z,7.68
2023-01-13T02:07:27.907Z,7.63
2023-01-13T02:09:55.464Z,7.70
2023-01-13T02:12:32.362Z,7.72
2023-01-13T02:15:15.207Z,7.75
2023-01-13T02:17:57.016Z,7.66
2023-01-13T02:20:26.340Z,7.72
2023-01-13T02:22:52.700Z,7.65
2023-01-13T02:25:31.296Z,7.75
2023-01-13T02:28:14.220Z,7.67
2023-01-13T02:31:04.576Z,7.69
2023-01-13T02:33:34.491Z,7.63
2023-01-13T02:36:03.993Z,7.64
2023-01-13T02:38:33.188Z,7.61
2023-01-13T02:41:25.496Z,7.68
2023-01-13T02:44:08.717Z,7.71
2023-01-13T02:46:40.027Z,7.62
2023-01-13T02:49:08.865Z,7.66
2023-01-13T02:51:35.520Z,7.70
2023-01-13T02:54:13.832Z,7.76
2023-01-13T02:56:42.169Z,7.86
2023-01-13T02:59:09.476Z,7.92
2023-01-13T03:01:35.872Z,8.05
2023-01-13T03:04:34.502Z,7.99
2023-01-13T03:07:12.824Z,7.96
2023-01-13T03:09:45.143Z,7.97
2023-01-13T03:12:18.522Z,8.11
2023-01-13T03:14:56.726Z,8.05
2023-01-13T03:17:28.877Z,8.06
2023-01-13T03:20:06.815Z,8.15
2023-01-13T03:22:35.972Z,8.13
2023-01-13T03:25:02.226Z,8.12
2023-01-13T03:27:33.488Z,8.10
2023-01-13T03:30:20.769Z,8.12
2023-01-13T03:32:50.300Z,8.16
2023-01-13T03:35:19.022Z,8.26
2023-01-13T03:37:47.419Z,8.30
2023-01-13T03:40:26.095Z,8.45
2023-01-13T03:43:13.060Z,8.39
2023-01-13T03:45:40.147Z,8.43
2023-01-13T03:48:13.508Z,8.48
2023-01-13T03:50:41.985Z,8.48
2023-01-13T03:53:12.090Z,8.58
2023-01-13T03:55:41.798Z,8.57
2023-01-13T03:58:23.312Z,8.48
2023-01-13T04:00:49.540Z,8.53
2023-01-13T04:03:29.363Z,8.56
2023-01-13T04:05:58.095Z,8.53
2023-01-13T04:08:25.997Z,8.61
2023-01-13T04:10:55.722Z,8.68
2023-01-13T04:13:23.782Z,8.56
2023-01-13T04:15:50.124Z,8.61
2023-01-13T04:18:18.348Z,8.70
2023-01-13T04:20:45.911Z,8.68
2023-01-13T04:23:13.569Z,8.65
2023-01-13T04:25:40.474Z,8.68
2023-01-13T04:28:06.757Z,8.58
2023-01-13T04:30:33.035Z,8.67
2023-01-13T04:32:59.523Z,8.58
2023-01-13T04:35:25.806Z,8.62
2023-01-13T04:37:52.061Z,8.69
2023-01-13T04:40:18.469Z,8.72
2023-01-13T04:42:44.956Z,8.75
2023-01-13T04:45:11.896Z,8.79
2023-01-13T04:47:38.579Z,8.85
2023-01-13T04:50:05.107Z,8.77
2023-01-13T04:52:31.408Z,8.77
2023-01-13T04:54:57.724Z,8.71
2023-01-13T04:57:24.043Z,8.66
2023-01-13T04:59:50.403Z,8.75
2023-01-13T05:02:19.864Z,8.74
2023-01-13T05:04:47.406Z,8.76
2023-01-13T05:07:14.788Z,8.74
2023-01-13T05:09:41.210Z,8.72
2023-01-13T05:12:27.329Z,8.82
2023-01-13T05:15:12.157Z,8.77
2023-01-13T05:17:39.079Z,8.81
2023-01-13T05:20:05.671Z,8.81
2023-01-13T05:22:50.745Z,8.75
2023-01-13T05:25:23.057Z,8.74
2023-01-13T05:27:49.456Z,8.83
2023-01-13T05:30:16.420Z,8.79
2023-01-13T05:32:42.742Z,8.70
2023-01-13T05:35:09.224Z,8.76
2023-01-13T05:37:35.905Z,8.70
2023-01-13T05:40:20.680Z,8.70
2023-01-13T05:43:05.529Z,8.70
2023-01-13T05:45:32.087Z,8.72
2023-01-13T05:47:58.656Z,8.78
2023-01-13T05:50:25.159Z,8.70
2023-01-13T05:52:51.438Z,8.64
2023-01-13T05:55:17.743Z,8.77
2023-01-13T05:57:44.638Z,8.68
2023-01-13T06:00:11.191Z,8.80
2023-01-13T06:02:37.524Z,8.82
2023-01-13T06:05:03.886Z,8.77
2023-01-13T06:07:30.152Z,8.80
2023-01-13T06:09:56.436Z,8.85
2023-01-13T06:12:22.701Z,8.82
2023-01-13T06:14:48.959Z,8.86
2023-01-13T06:17:16.024Z,8.83
2023-01-13T06:19:42.664Z,8.87
2023-01-13T06:22:19.397Z,8.68
2023-01-13T06:24:48.378Z,8.52
2023-01-13T06:27:15.438Z,8.38
2023-01-13T06:29:41.731Z,8.32
2023-01-13T06:32:12.944Z,8.28
2023-01-13T06:34:40.070Z,8.14
2023-01-13T06:37:06.532Z,8.13
2023-01-13T06:39:35.968Z,8.06
2023-01-13T06:42:22.058Z,8.11
2023-01-13T06:44:48.731Z,8.11
2023-01-13T06:47:14.995Z,8.10
2023-01-13T06:49:41.335Z,8.11
2023-01-13T06:52:07.643Z,8.07
2023-01-13T06:54:34.675Z,8.14
2023-01-13T06:57:01.646Z,8.23
2023-01-13T06:59:28.190Z,8.14
2023-01-13T07:01:54.682Z,8.25
2023-01-13T07:04:21.111Z,8.18
2023-01-13T07:06:47.402Z,8.26
2023-01-13T07:09:13.675Z,8.29
2023-01-13T07:11:39.950Z,8.36
2023-01-13T07:14:24.992Z,8.28
2023-01-13T07:16:51.949Z,8.34
2023-01-13T07:19:23.837Z,8.34
2023-01-13T07:21:51.671Z,8.31
2023-01-13T07:24:18.275Z,8.35
2023-01-13T07:26:44.588Z,8.37
2023-01-13T07:29:11.060Z,8.46
2023-01-13T07:31:38.908Z,8.50
2023-01-13T07:34:05.714Z,8.51
2023-01-13T07:36:32.000Z,8.47
2023-01-13T07:38:58.291Z,8.52
2023-01-13T07:41:43.316Z,8.60
2023-01-13T07:44:10.791Z,8.62
2023-01-13T07:46:37.571Z,8.69
2023-01-13T07:49:04.496Z,8.67
2023-01-13T07:51:30.824Z,8.67
2023-01-13T07:53:57.162Z,8.72
2023-01-13T07:56:23.421Z,8.65
2023-01-13T07:58:53.239Z,8.64
2023-01-13T08:01:19.699Z,8.64
2023-01-13T08:03:46.117Z,8.56
2023-01-13T08:06:12.463Z,8.49
2023-01-13T08:08:39.065Z,8.46
2023-01-13T08:11:06.853Z,8.44
2023-01-13T08:13:33.124Z,8.42
2023-01-13T08:16:17.781Z,8.40
2023-01-13T08:18:44.179Z,8.39
2023-01-13T08:21:12.764Z,8.33
2023-01-13T08:23:39.327Z,8.28
2023-01-13T08:26:07.007Z,8.27
2023-01-13T08:28:33.303Z,8.29
2023-01-13T08:31:03.357Z,8.27
2023-01-13T08:33:29.934Z,8.19
2023-01-13T08:35:56.401Z,8.34
2023-01-13T08:38:23.372Z,8.36
2023-01-13T08:40:49.725Z,8.47
2023-01-13T08:43:16.103Z,8.47
2023-01-13T08:45:42.392Z,8.46
2023-01-13T08:48:11.587Z,8.42
2023-01-13T08:50:37.879Z,8.45
2023-01-13T08:53:04.180Z,8.52
2023-01-13T08:55:30.490Z,8.51
2023-01-13T08:58:13.989Z,8.53
2023-01-13T09:00:41.338Z,8.49
2023-01-13T09:03:07.636Z,8.51
2023-01-13T09:05:35.273Z,8.64
2023-01-13T09:08:01.592Z,8.55
2023-01-13T09:10:28.035Z,8.71
2023-01-13T09:13:12.501Z,8.73
2023-01-13T09:15:39.824Z,8.84
2023-01-13T09:18:06.342Z,8.99
2023-01-13T09:20:32.640Z,8.91
2023-01-13T09:22:58.900Z,8.85
2023-01-13T09:25:25.168Z,8.80
2023-01-13T09:27:51.659Z,8.73
2023-01-13T09:30:17.993Z,8.80
2023-01-13T09:32:44.261Z,8.66
2023-01-13T09:35:10.545Z,8.61
2023-01-13T09:37:38.470Z,8.65
2023-01-13T09:40:06.423Z,8.69
2023-01-13T09:42:54.664Z,8.95
2023-01-13T09:45:23.038Z,8.29
2023-01-13T09:47:51.188Z,8.06
2023-01-13T09:50:38.600Z,7.97
2023-01-13T09:53:09.956Z,7.87
2023-01-13T09:55:36.926Z,7.76
2023-01-13T09:58:10.340Z,7.76
2023-01-13T10:00:39.827Z,7.66
2023-01-13T10:03:14.147Z,7.66
2023-01-13T10:05:42.506Z,7.60
2023-01-13T10:08:12.039Z,7.56
2023-01-13T10:10:41.619Z,7.52
2023-01-13T10:13:28.050Z,7.48
2023-01-13T10:15:57.454Z,7.46
2023-01-13T10:18:44.870Z,7.47
2023-01-13T10:21:19.057Z,7.49
2023-01-13T10:23:48.462Z,7.43
2023-01-13T10:26:44.169Z,7.46
2023-01-13T10:29:26.719Z,7.37
2023-01-13T10:31:53.710Z,7.50
2023-01-13T10:34:21.251Z,7.55
2023-01-13T10:37:07.412Z,7.46
2023-01-13T10:39:43.914Z,7.39
2023-01-13T10:42:28.236Z,7.29
2023-01-13T10:44:55.843Z,7.28
2023-01-13T10:47:25.116Z,7.23
2023-01-13T10:49:59.565Z,7.12
2023-01-13T10:52:28.359Z,7.14
2023-01-13T10:54:55.214Z,7.13
2023-01-13T10:57:23.516Z,7.16
2023-01-13T10:59:51.008Z,7.12
2023-01-13T11:02:25.738Z,7.13
2023-01-13T11:04:55.597Z,7.16
2023-01-13T11:07:28.459Z,7.19
2023-01-13T11:10:20.968Z,7.12
2023-01-13T11:12:53.667Z,7.17
2023-01-13T11:15:21.888Z,7.20
2023-01-13T11:17:53.495Z,7.18
2023-01-13T11:20:32.429Z,7.25
2023-01-13T11:23:01.184Z,7.26
2023-01-13T11:25:35.234Z,7.31
2023-01-13T11:28:06.742Z,7.29
2023-01-13T11:30:38.786Z,7.29
2023-01-13T11:33:14.145Z,7.28
2023-01-13T11:35:47.333Z,7.24
2023-01-13T11:38:33.887Z,7.32
2023-01-13T11:41:03.038Z,7.18
2023-01-13T11:43:32.499Z,7.14
2023-01-13T11:45:59.827Z,7.13
2023-01-13T11:48:35.841Z,7.26
2023-01-13T11:51:17.959Z,7.27
2023-01-13T11:53:52.961Z,7.27
2023-01-13T11:56:41.557Z,7.38
2023-01-13T11:59:26.507Z,7.35
2023-01-13T12:02:13.288Z,7.34
2023-01-13T12:04:42.375Z,7.36
2023-01-13T12:07:17.295Z,7.26
2023-01-13T12:10:05.049Z,7.32
2023-01-13T12:12:40.281Z,7.38
2023-01-13T12:15:12.621Z,7.41
2023-01-13T12:17:46.683Z,7.42
2023-01-13T12:20:29.143Z,7.40
2023-01-13T12:22:57.930Z,7.48
2023-01-13T12:25:39.606Z,7.45
2023-01-13T12:28:18.565Z,7.53
2023-01-13T12:30:47.999Z,7.50
2023-01-13T12:33:25.685Z,7.54
2023-01-13T12:35:59.606Z,7.55
2023-01-13T12:38:36.819Z,7.64
2023-01-13T12:41:23.377Z,7.78
2023-01-13T12:44:08.388Z,7.82
2023-01-13T12:46:35.683Z,7.86
2023-01-13T12:49:01.982Z,7.92
2023-01-13T12:51:28.300Z,7.85
2023-01-13T12:53:55.421Z,7.81
2023-01-13T12:56:24.810Z,7.76
2023-01-13T12:58:51.098Z,7.80
2023-01-13T13:01:20.203Z,7.81
2023-01-13T13:04:05.343Z,7.77
2023-01-13T13:06:32.417Z,7.78
2023-01-13T13:09:00.137Z,7.77
2023-01-13T13:11:53.560Z,7.85
2023-01-13T13:14:38.164Z,7.81
2023-01-13T13:17:25.361Z,7.93
2023-01-13T13:19:51.890Z,7.99
2023-01-13T13:22:19.276Z,8.00
2023-01-13T13:24:48.617Z,7.96
2023-01-13T13:27:33.694Z,7.96
2023-01-13T13:30:03.522Z,8.03
2023-01-13T13:32:45.874Z,8.01
2023-01-13T13:35:25.336Z,8.06
2023-01-13T13:38:19.310Z,8.02
2023-01-13T13:41:05.233Z,7.99
2023-01-13T13:43:56.057Z,8.02
2023-01-13T13:46:48.183Z,8.08
2023-01-13T13:49:15.897Z,7.99
2023-01-13T13:51:53.407Z,8.05
2023-01-13T13:54:21.368Z,7.99
2023-01-13T13:56:48.783Z,8.01
2023-01-13T13:59:22.745Z,8.02
2023-01-13T14:02:01.031Z,7.97
2023-01-13T14:04:30.131Z,7.92
2023-01-13T14:06:57.564Z,7.91
2023-01-13T14:09:24.768Z,7.99
2023-01-13T14:11:55.855Z,7.93
2023-01-13T14:14:22.921Z,7.94
2023-01-13T14:16:53.953Z,7.89
2023-01-13T14:19:30.596Z,7.88
2023-01-13T14:21:58.106Z,7.80
2023-01-13T14:24:25.115Z,7.83
2023-01-13T14:26:53.092Z,7.80
2023-01-13T14:29:21.530Z,7.80
2023-01-13T14:31:49.050Z,7.73
2023-01-13T14:34:32.006Z,7.81
2023-01-13T14:36:59.864Z,7.79
2023-01-13T14:39:33.319Z,7.68
2023-01-13T14:41:59.591Z,7.61
2023-01-13T14:44:26.906Z,7.62
2023-01-13T14:46:55.623Z,7.63
2023-01-13T14:49:21.872Z,7.58
2023-01-13T14:51:48.228Z,7.51
2023-01-13T14:54:33.283Z,7.53
2023-01-13T14:57:12.297Z,7.50
2023-01-13T14:59:44.160Z,7.47
2023-01-13T15:02:28.761Z,7.41
2023-01-13T15:05:15.137Z,7.46
2023-01-13T15:07:48.444Z,7.41
2023-01-13T15:10:16.918Z,7.42
2023-01-13T15:12:43.497Z,7.42
2023-01-13T15:15:19.682Z,7.42
2023-01-13T15:17:46.843Z,7.44
2023-01-13T15:20:13.797Z,7.43
2023-01-13T15:22:40.088Z,7.36
2023-01-13T15:25:09.421Z,7.37
2023-01-13T15:27:36.015Z,7.43
2023-01-13T15:30:03.193Z,7.39
2023-01-13T15:32:29.508Z,7.24
2023-01-13T15:34:55.801Z,7.28
2023-01-13T15:37:22.072Z,7.20
2023-01-13T15:39:48.435Z,7.13
2023-01-13T15:42:33.510Z,7.08
2023-01-13T15:45:18.283Z,7.09
2023-01-13T15:47:44.624Z,6.91
2023-01-13T15:50:15.187Z,6.73
2023-01-13T15:52:41.450Z,6.62
2023-01-13T15:55:07.970Z,6.57
2023-01-13T15:57:35.459Z,6.54
2023-01-13T16:00:04.431Z,6.53
2023-01-13T16:02:31.134Z,6.43
2023-01-13T16:04:57.549Z,6.39
2023-01-13T16:07:24.955Z,6.35
2023-01-13T16:09:51.411Z,6.22
2023-01-13T16:12:17.793Z,6.21
2023-01-13T16:14:44.168Z,6.15
2023-01-13T16:17:15.755Z,6.08
2023-01-13T16:19:42.283Z,6.00
2023-01-13T16:22:10.119Z,5.85
2023-01-13T16:24:36.445Z,5.80
2023-01-13T16:27:05.178Z,5.74
2023-01-13T16:29:31.509Z,5.63
2023-01-13T16:31:57.810Z,5.67
2023-01-13T16:34:24.115Z,5.59
2023-01-13T16:36:50.395Z,5.52
2023-01-13T16:39:20.526Z,5.51
2023-01-13T16:41:46.823Z,5.45
2023-01-13T16:44:13.164Z,5.44
2023-01-13T16:46:44.674Z,5.43
2023-01-13T16:49:14.818Z,5.33
2023-01-13T16:51:41.318Z,5.29
2023-01-13T16:54:07.714Z,5.30
2023-01-13T16:56:35.221Z,5.29
2023-01-13T16:59:06.064Z,5.24
2023-01-13T17:01:33.772Z,5.23
2023-01-13T17:04:00.423Z,5.23
2023-01-13T17:06:35.511Z,5.30
2023-01-13T17:09:02.832Z,5.42
2023-01-13T17:11:29.107Z,5.32
2023-01-13T17:13:55.628Z,5.34
2023-01-13T17:16:22.851Z,5.35
2023-01-13T17:18:49.284Z,5.40
2023-01-13T17:21:16.049Z,5.41
2023-01-13T17:23:42.564Z,5.45
2023-01-13T17:26:17.804Z,5.48
2023-01-13T17:28:45.600Z,5.49
2023-01-13T17:31:11.883Z,5.50
2023-01-13T17:33:38.173Z,5.43
2023-01-13T17:36:04.905Z,5.46
2023-01-13T17:38:31.333Z,5.56
2023-01-13T17:41:04.251Z,5.60
2023-01-13T17:43:31.122Z,5.62
2023-01-13T17:45:57.990Z,5.71
2023-01-13T17:48:24.977Z,5.65
2023-01-13T17:50:52.201Z,5.73
2023-01-13T17:53:18.977Z,5.78
2023-01-13T17:55:52.213Z,5.77
2023-01-13T17:58:19.088Z,5.71
2023-01-13T18:00:45.599Z,5.70
2023-01-13T18:03:12.057Z,5.70
2023-01-13T18:05:38.662Z,5.69
2023-01-13T18:08:05.310Z,5.68
2023-01-13T18:10:32.430Z,5.69
2023-01-13T18:12:58.811Z,5.79
2023-01-13T18:15:25.895Z,5.88
2023-01-13T18:17:52.180Z,5.85
2023-01-13T18:20:37.494Z,5.89
2023-01-13T18:23:22.284Z,5.94
2023-01-13T18:26:07.250Z,5.99
2023-01-13T18:28:33.539Z,5.96
2023-01-13T18:30:59.803Z,5.91
2023-01-13T18:33:26.072Z,5.70
2023-01-13T18:35:52.568Z,5.65
2023-01-13T18:38:21.241Z,5.65
2023-01-13T18:40:47.570Z,5.65
2023-01-13T18:43:15.278Z,5.63
2023-01-13T18:45:41.877Z,5.55
2023-01-13T18:48:08.171Z,5.58
2023-01-13T18:50:34.733Z,5.57
2023-01-13T18:53:01.895Z,5.56
2023-01-13T18:55:28.767Z,5.61
2023-01-13T18:57:55.880Z,5.71
2023-01-13T19:00:22.478Z,5.70
2023-01-13T19:02:50.719Z,5.69
2023-01-13T19:05:17.082Z,5.71
2023-01-13T19:07:50.258Z,5.69
2023-01-13T19:10:17.032Z,5.79
2023-01-13T19:12:43.883Z,5.80
2023-01-13T19:15:10.513Z,5.88
2023-01-13T19:17:36.763Z,5.88
2023-01-13T19:20:04.904Z,5.94
2023-01-13T19:22:32.850Z,6.00
2023-01-13T19:25:00.017Z,5.93
2023-01-13T19:27:29.437Z,5.97
2023-01-13T19:30:00.519Z,6.06
2023-01-13T19:32:27.265Z,6.14
2023-01-13T19:34:55.009Z,6.16
2023-01-13T19:37:21.293Z,6.19
2023-01-13T19:39:47.598Z,6.18
2023-01-13T19:42:32.354Z,6.26
2023-01-13T19:45:17.157Z,6.34
2023-01-13T19:47:45.439Z,6.35
2023-01-13T19:50:12.355Z,6.36
2023-01-13T19:52:38.674Z,6.37
2023-01-13T19:55:05.121Z,6.38
2023-01-13T19:57:31.373Z,6.43
2023-01-13T19:59:57.675Z,6.43
2023-01-13T20:02:31.562Z,6.44
2023-01-13T20:04:59.620Z,6.40
2023-01-13T20:07:26.676Z,6.43
2023-01-13T20:09:53.102Z,6.41
2023-01-13T20:12:20.160Z,6.39
2023-01-13T20:14:47.720Z,6.39
2023-01-13T20:17:15.208Z,6.33
2023-01-13T20:19:41.643Z,6.39
2023-01-13T20:22:08.318Z,6.36
2023-01-13T20:24:34.755Z,6.32
2023-01-13T20:27:01.356Z,6.34
2023-01-13T20:29:28.328Z,6.36
2023-01-13T20:31:54.606Z,6.33
2023-01-13T20:34:21.026Z,6.33
2023-01-13T20:36:48.341Z,6.26
2023-01-13T20:39:17.155Z,6.24
2023-01-13T20:42:01.942Z,6.30
2023-01-13T20:44:28.282Z,6.30
2023-01-13T20:46:55.765Z,6.31
2023-01-13T20:49:22.090Z,6.32
2023-01-13T20:51:48.399Z,6.41
2023-01-13T20:54:14.892Z,6.35
2023-01-13T20:56:41.186Z,6.43
2023-01-13T20:59:07.740Z,6.35
2023-01-13T21:01:34.309Z,6.42
2023-01-13T21:04:01.149Z,6.44
2023-01-13T21:06:28.114Z,6.40
2023-01-13T21:08:54.410Z,6.43
2023-01-13T21:11:40.302Z,6.55
2023-01-13T21:14:25.545Z,6.54
2023-01-13T21:16:51.831Z,6.51
2023-01-13T21:19:18.155Z,6.43
2023-01-13T21:21:44.457Z,6.47
2023-01-13T21:24:10.785Z,6.39
2023-01-13T21:26:38.536Z,6.45
2023-01-13T21:29:06.565Z,6.43
2023-01-13T21:31:33.025Z,6.51
2023-01-13T21:33:59.724Z,6.51
2023-01-13T21:36:26.770Z,6.51
2023-01-13T21:38:53.782Z,6.46
2023-01-13T21:41:40.093Z,6.47
2023-01-13T21:44:29.891Z,6.39
2023-01-13T21:47:14.609Z,6.39
2023-01-13T21:49:44.140Z,6.49
2023-01-13T21:52:11.570Z,6.47
2023-01-13T21:54:57.983Z,6.42
2023-01-13T21:57:25.749Z,6.42
2023-01-13T21:59:52.998Z,6.45
2023-01-13T22:02:28.963Z,6.43
2023-01-13T22:04:55.370Z,6.48
2023-01-13T22:07:21.705Z,6.50
2023-01-13T22:09:47.984Z,6.47
2023-01-13T22:12:15.511Z,6.45
2023-01-13T22:14:41.882Z,6.50
2023-01-13T22:17:08.219Z,6.46
2023-01-13T22:19:39.064Z,6.41
2023-01-13T22:22:07.339Z,6.46
2023-01-13T22:24:33.648Z,6.49
2023-01-13T22:26:59.898Z,6.42
2023-01-13T22:29:26.307Z,6.38
2023-01-13T22:31:52.712Z,6.27
2023-01-13T22:34:19.133Z,6.27
2023-01-13T22:36:45.482Z,6.33
2023-01-13T22:39:12.325Z,6.23
2023-01-13T22:41:38.629Z,6.20
2023-01-13T22:44:05.008Z,6.16
2023-01-13T22:46:31.302Z,6.15
2023-01-13T22:48:57.687Z,6.14
2023-01-13T22:51:24.074Z,6.06
2023-01-13T22:53:51.171Z,6.02
2023-01-13T22:56:18.852Z,6.07
2023-01-13T22:58:45.226Z,6.07
2023-01-13T23:01:12.960Z,5.97
2023-01-13T23:03:39.954Z,6.00
2023-01-13T23:06:06.374Z,6.02
2023-01-13T23:08:33.969Z,6.00
2023-01-13T23:11:07.462Z,5.95
2023-01-13T23:13:34.202Z,5.95
2023-01-13T23:16:04.345Z,5.89
2023-01-13T23:18:30.846Z,5.90
2023-01-13T23:21:01.657Z,5.93
2023-01-13T23:23:28.283Z,5.97
2023-01-13T23:25:56.403Z,5.91
2023-01-13T23:28:22.729Z,5.95
2023-01-13T23:30:49.473Z,5.96
2023-01-13T23:33:15.781Z,5.98
2023-01-13T23:35:42.085Z,6.02
2023-01-13T23:38:08.437Z,6.02
2023-01-13T23:40:35.063Z,5.96
2023-01-13T23:43:01.371Z,6.08
2023-01-13T23:45:27.660Z,6.12
2023-01-13T23:47:55.743Z,6.12
2023-01-13T23:50:22.044Z,6.14
2023-01-13T23:52:48.297Z,6.18
2023-01-13T23:55:14.743Z,6.05
2023-01-13T23:57:41.026Z,6.12
